createdAt,value
2023-12-05T00:01:10.496Z,81.40
2023-12-05T00:04:13.051Z,81.43
2023-12-05T00:07:15.530Z,81.47
2023-12-05T00:10:17.981Z,81.66
2023-12-05T00:13:20.421Z,82.09
2023-12-05T00:16:22.848Z,82.62
2023-12-05T00:19:25.256Z,82.50
2023-12-05T00:22:28.603Z,82.69
2023-12-05T00:25:30.984Z,83.03
2023-12-05T00:28:33.417Z,82.74
2023-12-05T00:31:35.777Z,82.37
2023-12-05T00:34:38.188Z,81.88
2023-12-05T00:37:40.621Z,81.27
2023-12-05T00:40:43.027Z,81.23
2023-12-05T00:43:45.579Z,81.46
2023-12-05T00:46:47.953Z,81.20
2023-12-05T00:49:50.348Z,81.63
2023-12-05T00:52:52.738Z,81.87
2023-12-05T00:55:55.157Z,82.26
2023-12-05T00:58:57.499Z,82.20
2023-12-05T01:02:00.524Z,82.27
2023-12-05T01:05:04.029Z,82.18
2023-12-05T01:08:06.656Z,82.29
2023-12-05T01:11:11.481Z,82.60
2023-12-05T01:14:13.923Z,83.12
2023-12-05T01:17:19.072Z,83.03
2023-12-05T01:20:21.797Z,82.96
2023-12-05T01:23:24.432Z,82.47
2023-12-05T01:26:26.888Z,82.20
2023-12-05T01:29:29.654Z,81.79
2023-12-05T01:32:32.145Z,81.86
2023-12-05T01:35:34.638Z,82.52
2023-12-05T01:38:37.039Z,82.15
2023-12-05T01:41:39.475Z,82.01
2023-12-05T01:44:41.849Z,82.28
2023-12-05T01:47:44.384Z,82.25
2023-12-05T01:50:46.809Z,82.25
2023-12-05T01:53:49.737Z,82.49
2023-12-05T01:56:52.182Z,82.71
2023-12-05T01:59:54.548Z,83.13
2023-12-05T02:02:58.110Z,82.81
2023-12-05T02:06:00.522Z,82.85
2023-12-05T02:09:04.275Z,83.09
2023-12-05T02:12:07.069Z,83.43
2023-12-05T02:15:09.560Z,83.13
2023-12-05T02:18:17.828Z,83.68
2023-12-05T02:21:22.024Z,83.02
2023-12-05T02:24:48.023Z,83.51
2023-12-05T02:27:50.489Z,83.46
2023-12-05T02:30:53.818Z,83.56
2023-12-05T02:33:56.400Z,83.98
2023-12-05T02:37:05.971Z,84.56
2023-12-05T02:40:11.923Z,84.82
2023-12-05T02:43:17.317Z,84.62
2023-12-05T02:46:19.701Z,84.16
2023-12-05T02:49:22.234Z,84.35
2023-12-05T02:52:24.677Z,84.23
2023-12-05T02:55:27.027Z,84.60
2023-12-05T02:58:29.974Z,84.83
2023-12-05T03:01:38.379Z,85.01
2023-12-05T03:04:40.981Z,84.74
2023-12-05T03:07:43.468Z,84.72
2023-12-05T03:10:54.873Z,85.34
2023-12-05T03:14:03.851Z,85.70
2023-12-05T03:17:06.345Z,85.30
2023-12-05T03:20:09.135Z,85.33
2023-12-05T03:23:11.505Z,85.32
2023-12-05T03:26:20.685Z,85.05
2023-12-05T03:29:23.137Z,85.24
2023-12-05T03:32:25.570Z,85.29
2023-12-05T03:35:27.962Z,85.01
2023-12-05T03:38:30.339Z,84.86
2023-12-05T03:41:32.758Z,85.08
2023-12-05T03:44:35.162Z,85.15
2023-12-05T03:47:37.616Z,85.14
2023-12-05T03:50:40.021Z,85.11
2023-12-05T03:53:42.433Z,84.32
2023-12-05T03:56:44.849Z,84.75
2023-12-05T03:59:47.847Z,84.12
2023-12-05T04:02:50.253Z,83.44
2023-12-05T04:05:52.680Z,83.02
2023-12-05T04:08:55.100Z,83.23
2023-12-05T04:11:59.039Z,82.74
2023-12-05T04:15:01.481Z,83.23
2023-12-05T04:18:04.010Z,82.57
2023-12-05T04:21:06.588Z,82.63
2023-12-05T04:24:08.944Z,82.72
2023-12-05T04:27:11.386Z,82.59
2023-12-05T04:30:13.953Z,82.78
2023-12-05T04:33:16.697Z,82.99
2023-12-05T04:36:19.162Z,83.42
2023-12-05T04:39:21.623Z,83.72
2023-12-05T04:42:24.048Z,83.16
2023-12-05T04:45:26.528Z,83.02
2023-12-05T04:48:29.253Z,82.60
2023-12-05T04:51:32.346Z,82.66
2023-12-05T04:54:34.764Z,82.90
2023-12-05T04:57:37.276Z,82.80
2023-12-05T05:00:39.890Z,83.00
2023-12-05T05:03:42.434Z,83.03
2023-12-05T05:06:45.003Z,97.17
2023-12-05T05:09:47.476Z,96.83
2023-12-05T05:12:50.020Z,92.58
2023-12-05T05:15:52.479Z,81.16
2023-12-05T05:18:55.046Z,71.71
2023-12-05T05:21:57.580Z,66.17
2023-12-05T05:25:00.220Z,64.91
2023-12-05T05:28:02.934Z,63.01
2023-12-05T05:31:05.511Z,63.26
2023-12-05T05:34:07.948Z,62.64
2023-12-05T05:37:10.303Z,53.10
2023-12-05T05:40:12.889Z,60.30
2023-12-05T05:43:15.303Z,66.82
2023-12-05T05:46:17.698Z,71.30
2023-12-05T05:49:20.216Z,73.91
2023-12-05T05:52:22.635Z,75.64
2023-12-05T05:55:26.248Z,76.52
2023-12-05T05:58:29.057Z,77.01
2023-12-05T06:01:31.839Z,78.54
2023-12-05T06:04:34.391Z,79.18
2023-12-05T06:07:38.379Z,79.57
2023-12-05T06:10:41.506Z,79.72
2023-12-05T06:13:43.889Z,80.13
2023-12-05T06:16:46.315Z,80.13
2023-12-05T06:19:48.807Z,80.59
2023-12-05T06:22:51.266Z,80.87
2023-12-05T06:25:53.648Z,80.94
2023-12-05T06:28:56.107Z,80.81
2023-12-05T06:31:58.506Z,80.63
2023-12-05T06:35:01.034Z,81.15
2023-12-05T06:38:03.410Z,81.49
2023-12-05T06:41:06.281Z,81.63
2023-12-05T06:44:08.704Z,81.97
2023-12-05T06:47:11.061Z,82.23
2023-12-05T06:50:13.503Z,81.79
2023-12-05T06:53:15.908Z,82.04
2023-12-05T06:56:19.763Z,82.38
2023-12-05T06:59:22.990Z,82.21
2023-12-05T07:02:25.368Z,81.79
2023-12-05T07:05:27.870Z,81.99
2023-12-05T07:08:30.292Z,81.75
2023-12-05T07:11:32.845Z,82.01
2023-12-05T07:14:38.274Z,81.85
2023-12-05T07:17:40.791Z,81.98
2023-12-05T07:20:43.252Z,81.94
2023-12-05T07:23:52.469Z,82.54
2023-12-05T07:27:01.340Z,81.88
2023-12-05T07:30:04.727Z,82.15
2023-12-05T07:33:07.270Z,82.30
2023-12-05T07:36:10.347Z,81.89
2023-12-05T07:39:14.146Z,82.50
2023-12-05T07:42:16.633Z,81.85
2023-12-05T07:45:19.006Z,81.72
2023-12-05T07:48:21.507Z,81.69
2023-12-05T07:51:24.618Z,81.70
2023-12-05T07:54:28.082Z,81.72
2023-12-05T07:57:30.638Z,81.30
2023-12-05T08:00:33.680Z,80.73
2023-12-05T08:03:36.308Z,81.28
2023-12-05T08:06:38.759Z,81.50
2023-12-05T08:09:41.147Z,81.96
2023-12-05T08:12:43.649Z,82.38
2023-12-05T08:15:46.130Z,81.57
2023-12-05T08:18:48.617Z,82.19
2023-12-05T08:21:51.015Z,81.54
2023-12-05T08:24:53.423Z,81.69
2023-12-05T08:27:55.882Z,82.83
2023-12-05T08:30:58.307Z,81.21
2023-12-05T08:34:01.119Z,80.67
2023-12-05T08:37:04.020Z,83.56
2023-12-05T08:40:08.204Z,80.28
2023-12-05T08:43:11.369Z,80.45
2023-12-05T08:46:14.205Z,81.17
2023-12-05T08:49:16.658Z,80.87
2023-12-05T08:52:20.624Z,80.52
2023-12-05T08:55:23.057Z,80.23
2023-12-05T08:58:25.941Z,79.53
2023-12-05T09:01:29.638Z,79.52
2023-12-05T09:04:32.227Z,78.85
2023-12-05T09:07:34.930Z,78.38
2023-12-05T09:10:37.422Z,78.79
2023-12-05T09:13:40.168Z,78.06
2023-12-05T09:16:42.656Z,77.60
2023-12-05T09:19:45.114Z,77.05
2023-12-05T09:22:47.478Z,76.83
2023-12-05T09:25:49.914Z,76.39
2023-12-05T09:28:52.427Z,77.59
2023-12-05T09:31:54.992Z,77.78
2023-12-05T09:34:57.374Z,78.55
2023-12-05T09:37:59.891Z,77.53
2023-12-05T09:41:02.376Z,76.48
2023-12-05T09:44:05.007Z,77.17
2023-12-05T09:47:07.413Z,76.27
2023-12-05T09:50:10.876Z,76.14
2023-12-05T09:53:13.322Z,75.69
2023-12-05T09:56:16.142Z,75.71
2023-12-05T09:59:18.662Z,75.88
2023-12-05T10:02:22.305Z,75.59
2023-12-05T10:05:24.878Z,75.55
2023-12-05T10:08:27.341Z,76.10
2023-12-05T10:11:29.752Z,75.82
2023-12-05T10:14:32.143Z,75.67
2023-12-05T10:17:35.780Z,75.83
2023-12-05T10:20:39.919Z,75.75
2023-12-05T10:23:42.476Z,76.09
2023-12-05T10:26:46.162Z,76.08
2023-12-05T10:29:48.568Z,75.55
2023-12-05T10:32:51.037Z,75.49
2023-12-05T10:35:53.427Z,75.14
2023-12-05T10:38:55.829Z,75.34
2023-12-05T10:41:58.201Z,74.22
2023-12-05T10:45:05.751Z,73.36
2023-12-05T10:48:08.293Z,73.21
2023-12-05T10:51:10.741Z,72.99
2023-12-05T10:54:14.440Z,73.25
2023-12-05T10:57:16.817Z,72.85
2023-12-05T11:00:20.060Z,72.04
2023-12-05T11:03:22.598Z,71.34
2023-12-05T11:06:26.882Z,71.72
2023-12-05T11:09:29.521Z,71.35
2023-12-05T11:12:32.200Z,72.04
2023-12-05T11:15:40.542Z,71.79
2023-12-05T11:18:44.904Z,72.03
2023-12-05T11:22:09.623Z,71.05
2023-12-05T11:25:33.395Z,71.50
2023-12-05T11:29:03.418Z,71.40
2023-12-05T11:32:26.536Z,71.71
2023-12-05T11:35:59.378Z,71.29
2023-12-05T11:39:01.872Z,71.60
2023-12-05T11:42:15.641Z,72.34
2023-12-05T11:45:22.433Z,72.41
2023-12-05T11:48:27.196Z,72.04
2023-12-05T11:51:32.984Z,72.28
2023-12-05T11:54:35.412Z,72.87
2023-12-05T11:57:37.889Z,72.74
2023-12-05T12:00:40.344Z,73.65
2023-12-05T12:03:55.559Z,74.04
2023-12-05T12:06:59.397Z,74.65
2023-12-05T12:10:03.069Z,75.48
2023-12-05T12:13:05.560Z,75.12
2023-12-05T12:16:08.342Z,75.71
2023-12-05T12:19:13.420Z,76.65
2023-12-05T12:22:16.258Z,76.64
2023-12-05T12:25:20.434Z,76.87
2023-12-05T12:28:32.189Z,77.12
2023-12-05T12:31:34.700Z,76.76
2023-12-05T12:37:46.132Z,76.55
2023-12-05T12:40:54.830Z,76.05
2023-12-05T12:43:57.267Z,76.37
2023-12-05T12:47:00.949Z,76.73
2023-12-05T12:50:03.943Z,77.01
2023-12-05T12:53:06.372Z,77.85
2023-12-05T12:56:11.159Z,78.07
2023-12-05T12:59:14.258Z,78.03
2023-12-05T13:02:17.064Z,77.37
2023-12-05T13:05:19.647Z,76.94
2023-12-05T13:08:22.136Z,76.94
2023-12-05T13:11:24.537Z,77.01
2023-12-05T13:14:27.060Z,78.06
2023-12-05T13:17:30.841Z,77.72
2023-12-05T13:20:33.289Z,77.54
2023-12-05T13:23:35.698Z,76.50
2023-12-05T13:26:38.825Z,76.93
2023-12-05T13:29:41.269Z,77.25
2023-12-05T13:32:44.621Z,77.16
2023-12-05T13:35:47.108Z,77.50
2023-12-05T13:38:50.234Z,77.94
2023-12-05T13:41:52.644Z,77.56
2023-12-05T13:44:55.037Z,77.37
2023-12-05T13:47:57.595Z,77.38
2023-12-05T13:51:00.138Z,77.75
2023-12-05T13:54:02.728Z,77.71
2023-12-05T13:57:06.320Z,78.03
2023-12-05T14:00:09.517Z,78.23
2023-12-05T14:03:11.942Z,78.41
2023-12-05T14:06:14.462Z,78.05
2023-12-05T14:09:16.958Z,78.28
2023-12-05T14:12:19.564Z,78.44
2023-12-05T14:15:25.051Z,78.22
2023-12-05T14:18:28.577Z,78.87
2023-12-05T14:21:31.506Z,79.10
2023-12-05T14:24:34.328Z,79.36
2023-12-05T14:27:38.575Z,79.71
2023-12-05T14:30:41.961Z,79.33
2023-12-05T14:33:45.030Z,79.65
2023-12-05T14:36:47.707Z,79.70
2023-12-05T14:39:52.139Z,79.37
2023-12-05T14:42:55.482Z,79.51
2023-12-05T14:45:57.962Z,79.58
2023-12-05T14:49:00.576Z,79.96
2023-12-05T14:52:04.638Z,79.83
2023-12-05T14:55:07.323Z,80.02
2023-12-05T14:58:09.887Z,79.58
2023-12-05T15:01:12.355Z,79.87
2023-12-05T15:04:14.933Z,80.30
2023-12-05T15:07:17.610Z,80.34
2023-12-05T15:10:20.249Z,80.68
2023-12-05T15:13:22.715Z,81.22
2023-12-05T15:16:25.265Z,81.47
2023-12-05T15:19:29.574Z,81.89
2023-12-05T15:22:32.024Z,82.28
2023-12-05T15:25:35.370Z,82.01
2023-12-05T15:28:39.400Z,82.25
2023-12-05T15:31:43.163Z,82.94
2023-12-05T15:34:45.581Z,82.60
2023-12-05T15:37:47.968Z,83.00
2023-12-05T15:40:50.435Z,82.81
2023-12-05T15:43:52.863Z,82.82
2023-12-05T15:46:55.501Z,82.84
2023-12-05T15:49:59.045Z,82.82
2023-12-05T15:53:04.345Z,83.30
2023-12-05T15:56:07.217Z,83.20
2023-12-05T15:59:10.776Z,84.04
2023-12-05T16:02:13.219Z,83.82
2023-12-05T16:05:16.191Z,84.12
2023-12-05T16:08:18.664Z,84.32
2023-12-05T16:11:21.156Z,84.17
2023-12-05T16:14:23.549Z,84.58
2023-12-05T16:17:25.944Z,84.50
2023-12-05T16:20:28.339Z,84.54
2023-12-05T16:23:31.155Z,84.65
2023-12-05T16:26:39.543Z,84.75
2023-12-05T16:29:42.050Z,84.96
2023-12-05T16:32:44.490Z,85.40
2023-12-05T16:35:46.914Z,85.19
2023-12-05T16:38:49.382Z,85.59
2023-12-05T16:41:51.818Z,85.78
2023-12-05T16:44:54.299Z,86.39
2023-12-05T16:47:59.701Z,86.92
2023-12-05T16:51:02.621Z,86.22
2023-12-05T16:54:05.210Z,85.90
2023-12-05T16:57:07.594Z,85.04
2023-12-05T17:00:10.331Z,85.23
2023-12-05T17:03:12.797Z,85.69
2023-12-05T17:06:15.275Z,85.86
2023-12-05T17:09:19.778Z,86.15
2023-12-05T17:12:22.372Z,86.55
2023-12-05T17:15:24.732Z,86.89
2023-12-05T17:18:27.228Z,87.16
2023-12-05T17:21:29.736Z,86.83
2023-12-05T17:24:32.221Z,87.07
2023-12-05T17:27:34.688Z,87.36
2023-12-05T17:30:37.218Z,87.51
2023-12-05T17:33:39.809Z,87.45
2023-12-05T17:36:42.439Z,87.51
2023-12-05T17:39:44.898Z,87.58
2023-12-05T17:42:47.460Z,87.45
2023-12-05T17:45:49.921Z,87.03
2023-12-05T17:48:52.480Z,87.30
2023-12-05T17:51:54.983Z,87.54
2023-12-05T17:54:57.466Z,87.43
2023-12-05T17:58:00.110Z,87.81
2023-12-05T18:01:02.771Z,87.70
2023-12-05T18:04:05.687Z,87.71
2023-12-05T18:07:50.719Z,87.44
2023-12-05T18:10:30.698Z,87.11
2023-12-05T18:13:34.084Z,87.08
2023-12-05T18:16:36.824Z,86.73
2023-12-05T18:19:44.930Z,86.62
2023-12-05T18:22:48.978Z,85.89
2023-12-05T18:25:51.371Z,86.23
2023-12-05T18:28:54.367Z,86.30
2023-12-05T18:31:56.795Z,86.54
2023-12-05T18:34:59.269Z,86.84
2023-12-05T18:38:01.697Z,87.29
2023-12-05T18:41:04.285Z,87.55
2023-12-05T18:44:06.719Z,87.77
2023-12-05T18:47:09.115Z,87.65
2023-12-05T18:50:11.596Z,87.49
2023-12-05T18:53:14.153Z,86.98
2023-12-05T18:56:16.635Z,87.41
2023-12-05T18:59:19.449Z,87.63
2023-12-05T19:02:22.944Z,87.61
2023-12-05T19:05:25.445Z,87.66
2023-12-05T19:08:27.814Z,87.96
2023-12-05T19:11:30.244Z,87.77
2023-12-05T19:14:33.807Z,87.74
2023-12-05T19:17:36.330Z,87.66
2023-12-05T19:20:38.715Z,87.86
2023-12-05T19:23:41.150Z,87.73
2023-12-05T19:26:43.621Z,88.11
2023-12-05T19:29:45.985Z,88.08
2023-12-05T19:32:48.617Z,87.74
2023-12-05T19:35:51.099Z,87.16
2023-12-05T19:38:53.885Z,86.28
2023-12-05T19:41:56.354Z,86.08
2023-12-05T19:44:59.148Z,85.78
2023-12-05T19:48:01.598Z,86.50
2023-12-05T19:51:04.066Z,86.79
2023-12-05T19:54:07.164Z,86.72
2023-12-05T19:57:09.562Z,86.67
2023-12-05T20:00:12.373Z,86.82
2023-12-05T20:03:16.049Z,86.92
2023-12-05T20:06:19.226Z,86.38
2023-12-05T20:09:21.946Z,86.09
2023-12-05T20:12:24.552Z,85.74
2023-12-05T20:15:27.022Z,86.12
2023-12-05T20:18:29.545Z,87.07
2023-12-05T20:21:32.057Z,86.76
2023-12-05T20:24:34.725Z,86.92
2023-12-05T20:27:37.243Z,87.31
2023-12-05T20:30:39.890Z,87.57
2023-12-05T20:33:42.448Z,88.38
2023-12-05T20:36:44.940Z,88.19
2023-12-05T20:39:47.400Z,88.83
2023-12-05T20:42:49.883Z,89.13
2023-12-05T20:45:52.371Z,89.13
2023-12-05T20:48:54.792Z,89.34
2023-12-05T20:51:57.291Z,89.66
2023-12-05T20:54:59.757Z,89.70
2023-12-05T20:58:02.173Z,89.77
2023-12-05T21:01:06.240Z,89.24
2023-12-05T21:04:08.800Z,89.75
2023-12-05T21:07:13.342Z,89.16
2023-12-05T21:10:15.899Z,89.66
2023-12-05T21:13:18.354Z,88.95
2023-12-05T21:16:20.764Z,89.30
2023-12-05T21:19:23.179Z,89.69
2023-12-05T21:22:26.313Z,89.45
2023-12-05T21:25:28.924Z,89.85
2023-12-05T21:28:31.744Z,89.71
2023-12-05T21:31:34.164Z,89.90
2023-12-05T21:34:41.184Z,89.88
2023-12-05T21:37:45.000Z,90.17
2023-12-05T21:40:47.595Z,89.24
2023-12-05T21:43:49.988Z,89.80
2023-12-05T21:46:52.415Z,89.69
2023-12-05T21:49:54.891Z,89.33
2023-12-05T21:52:57.345Z,88.43
2023-12-05T21:55:59.752Z,88.26
2023-12-05T21:59:02.211Z,88.37
2023-12-05T22:02:04.736Z,88.06
2023-12-05T22:05:07.491Z,88.09
2023-12-05T22:08:09.952Z,88.27
2023-12-05T22:11:13.283Z,87.80
2023-12-05T22:14:15.783Z,87.30
2023-12-05T22:17:18.421Z,87.43
2023-12-05T22:20:21.045Z,86.82
2023-12-05T22:23:25.677Z,87.33
2023-12-05T22:26:29.076Z,86.93
2023-12-05T22:29:31.532Z,86.67
2023-12-05T22:32:33.964Z,87.13
2023-12-05T22:35:38.965Z,86.90
2023-12-05T22:38:41.316Z,86.95
2023-12-05T22:41:46.616Z,87.62
2023-12-05T22:44:49.130Z,88.09
2023-12-05T22:47:51.570Z,87.90
2023-12-05T22:50:53.982Z,87.49
2023-12-05T22:53:56.800Z,87.44
2023-12-05T22:56:59.298Z,87.40
2023-12-05T23:00:02.774Z,87.76
2023-12-05T23:03:05.319Z,88.29
2023-12-05T23:06:08.078Z,87.68
2023-12-05T23:09:10.687Z,87.52
2023-12-05T23:12:13.029Z,87.88
2023-12-05T23:15:15.405Z,87.64
2023-12-05T23:18:17.991Z,87.87
2023-12-05T23:21:20.345Z,87.99
2023-12-05T23:24:22.881Z,88.49
2023-12-05T23:27:25.487Z,88.51
2023-12-05T23:30:28.707Z,88.86
2023-12-05T23:33:31.341Z,89.09
2023-12-05T23:36:33.825Z,88.88
2023-12-05T23:39:36.415Z,88.95
2023-12-05T23:42:38.838Z,89.71
2023-12-05T23:45:41.288Z,89.88
2023-12-05T23:48:44.528Z,89.73
2023-12-05T23:51:47.068Z,90.01
2023-12-05T23:54:49.965Z,90.10
2023-12-05T23:57:52.407Z,89.95
